createdAt,value
2022-09-18T00:00:45.501Z,10.66
2022-09-18T00:03:13.666Z,11.49
2022-09-18T00:05:41.736Z,9.52
2022-09-18T00:08:10.788Z,11.85
2022-09-18T00:10:44.884Z,8.47
2022-09-18T00:13:14.610Z,11.70
2022-09-18T00:15:44.084Z,11.85
2022-09-18T00:18:12.310Z,11.86
2022-09-18T00:20:40.559Z,11.25
2022-09-18T00:23:08.606Z,11.73
2022-09-18T00:25:36.680Z,9.94
2022-09-18T00:28:07.070Z,10.81
2022-09-18T00:30:35.028Z,10.84
2022-09-18T00:33:05.110Z,11.59
2022-09-18T01:00:39.479Z,10.65
2022-09-18T01:03:08.232Z,9.75
2022-09-18T01:05:53.409Z,11.75
2022-09-18T01:08:33.318Z,9.64
2022-09-18T01:11:12.795Z,11.89
2022-09-18T01:13:46.934Z,10.67
2022-09-18T01:16:26.903Z,11.29
2022-09-18T01:19:05.932Z,11.55
2022-09-18T01:21:40.187Z,8.72
2022-09-18T01:24:44.209Z,10.38
2022-09-18T01:27:20.786Z,11.88
2022-09-18T01:32:59.797Z,11.75
2022-09-18T01:35:41.427Z,11.64
2022-09-18T01:38:17.459Z,8.49
2022-09-18T01:40:49.775Z,10.52
2022-09-18T01:43:21.947Z,10.48
2022-09-18T01:45:55.403Z,11.87
2022-09-18T01:48:33.228Z,10.06
2022-09-18T01:51:08.102Z,11.65
2022-09-18T01:53:41.193Z,9.04
2022-09-18T01:56:14.948Z,11.12
2022-09-18T01:58:44.503Z,9.73
2022-09-18T02:01:16.910Z,9.04
2022-09-18T02:03:52.237Z,11.96
2022-09-18T02:06:26.785Z,8.62
2022-09-18T02:08:59.332Z,11.80
2022-09-18T02:11:27.771Z,10.38
2022-09-18T02:14:01.791Z,8.02
2022-09-18T02:16:49.398Z,9.75
2022-09-18T02:19:23.197Z,11.82
2022-09-18T02:21:53.584Z,10.26
2022-09-18T02:24:25.845Z,11.67
2022-09-18T02:26:54.789Z,10.16
2022-09-18T02:32:49.632Z,11.84
2022-09-18T02:35:20.703Z,11.45
2022-09-18T02:37:59.198Z,11.06
2022-09-18T02:40:38.387Z,11.65
2022-09-18T02:43:21.319Z,8.60
2022-09-18T02:45:57.106Z,11.70
2022-09-18T02:48:42.257Z,11.15
2022-09-18T02:51:22.404Z,8.74
2022-09-18T02:53:57.353Z,11.74
2022-09-18T02:56:34.361Z,9.00
2022-09-18T02:59:09.918Z,11.75
2022-09-18T03:01:42.672Z,11.54
2022-09-18T03:04:14.785Z,9.73
2022-09-18T03:07:04.428Z,9.85
2022-09-18T03:09:38.106Z,10.81
2022-09-18T03:12:06.355Z,10.91
2022-09-18T03:14:39.406Z,9.44
2022-09-18T03:17:07.715Z,9.91
2022-09-18T03:19:38.026Z,9.11
2022-09-18T03:22:07.876Z,10.79
2022-09-18T03:24:38.649Z,8.91
2022-09-18T03:27:15.160Z,11.79
2022-09-18T03:29:43.461Z,9.84
2022-09-18T03:32:11.764Z,9.09
2022-09-18T03:34:47.076Z,10.87
2022-09-18T03:37:18.569Z,10.68
2022-09-18T03:39:48.249Z,10.30
2022-09-18T03:42:16.356Z,10.18
2022-09-18T03:44:44.404Z,11.38
2022-09-18T03:47:39.490Z,11.78
2022-09-18T03:50:11.191Z,8.81
2022-09-18T03:52:42.666Z,9.62
2022-09-18T04:04:53.992Z,10.13
2022-09-18T04:07:42.258Z,11.38
2022-09-18T04:10:40.987Z,11.74
2022-09-18T04:13:09.155Z,11.53
2022-09-18T04:15:39.532Z,10.61
2022-09-18T05:07:05.241Z,11.81
2022-09-18T05:21:57.779Z,10.45
2022-09-18T05:24:25.889Z,10.83
2022-09-18T05:26:54.207Z,9.89
2022-09-18T05:29:23.421Z,9.59
2022-09-18T05:31:55.845Z,9.75
2022-09-18T05:34:24.142Z,10.70
2022-09-18T05:36:52.183Z,10.79
2022-09-18T05:39:21.547Z,11.04
2022-09-18T05:41:51.504Z,10.70
2022-09-18T05:44:19.870Z,10.79
2022-09-18T05:46:50.043Z,11.85
2022-09-18T05:49:18.930Z,8.23
2022-09-18T05:51:46.965Z,9.83
2022-09-18T05:54:17.980Z,12.07
2022-09-18T05:56:52.119Z,11.97
2022-09-18T05:59:20.476Z,12.13
2022-09-18T06:01:49.893Z,11.72
2022-09-18T06:04:52.837Z,12.21
2022-09-18T06:07:21.177Z,12.23
2022-09-18T06:09:50.020Z,12.10
2022-09-18T06:12:20.414Z,9.66
2022-09-18T06:14:48.564Z,9.73
2022-09-18T06:17:17.155Z,10.63
2022-09-18T06:19:46.194Z,10.83
2022-09-18T06:22:14.870Z,10.96
2022-09-18T06:24:44.161Z,11.80
2022-09-18T06:27:16.852Z,10.12
2022-09-18T06:29:47.335Z,12.53
2022-09-18T06:32:26.612Z,10.16
2022-09-18T06:34:57.295Z,12.21
2022-09-18T06:37:28.300Z,11.94
2022-09-18T06:40:09.785Z,11.30
2022-09-18T06:42:56.748Z,11.89
2022-09-18T06:45:40.438Z,12.09
2022-09-18T06:48:08.435Z,12.62
2022-09-18T06:50:38.676Z,11.80
2022-09-18T06:53:12.501Z,12.38
2022-09-18T06:55:51.824Z,9.47
2022-09-18T06:58:23.039Z,12.75
2022-09-18T07:00:54.817Z,9.52
2022-09-18T07:03:35.471Z,9.47
2022-09-18T07:48:43.299Z,15.09
2022-09-18T07:51:37.258Z,15.02
2022-09-18T08:10:17.064Z,14.96
2022-09-18T08:12:56.325Z,15.13
2022-09-18T08:15:32.170Z,14.96
2022-09-18T08:18:39.540Z,15.08
2022-09-18T08:21:31.448Z,16.54
2022-09-18T08:24:03.059Z,14.94
2022-09-18T08:26:31.642Z,16.43
2022-09-18T08:29:02.750Z,17.68
2022-09-18T08:31:32.188Z,17.50
2022-09-18T08:34:00.648Z,16.36
2022-09-18T08:36:28.766Z,16.37
2022-09-18T08:39:04.190Z,16.92
2022-09-18T08:42:05.879Z,16.74
2022-09-18T08:44:48.323Z,15.19
2022-09-18T08:47:25.697Z,16.95
2022-09-18T09:09:21.359Z,14.98
2022-09-18T09:15:29.369Z,14.37
2022-09-18T09:18:13.452Z,15.72
2022-09-18T09:24:07.948Z,17.49
2022-09-18T09:26:58.323Z,16.33
2022-09-18T09:30:02.730Z,14.88
2022-09-18T09:32:53.439Z,13.73
2022-09-18T09:35:42.267Z,14.37
2022-09-18T09:38:42.181Z,14.37
2022-09-18T09:41:18.764Z,12.99
2022-09-18T09:43:57.511Z,15.06
2022-09-18T09:46:45.280Z,14.84
2022-09-18T09:49:19.677Z,14.41
2022-09-18T09:51:58.759Z,15.14
2022-09-18T09:54:28.271Z,16.24
2022-09-18T09:57:07.903Z,14.15
2022-09-18T09:59:46.916Z,15.44
2022-09-18T10:02:33.805Z,14.41
2022-09-18T10:05:14.868Z,14.36
2022-09-18T10:07:50.822Z,13.02
2022-09-18T10:10:29.094Z,11.97
2022-09-18T10:13:03.015Z,15.03
2022-09-18T10:15:39.603Z,14.29
2022-09-18T10:18:17.756Z,14.18
2022-09-18T10:20:47.583Z,13.88
2022-09-18T10:23:25.666Z,13.15
2022-09-18T10:25:59.865Z,15.45
2022-09-18T10:28:30.498Z,14.72
2022-09-18T10:31:05.517Z,15.25
2022-09-18T10:33:39.855Z,14.73
2022-09-18T10:36:23.835Z,16.35
2022-09-18T10:38:52.395Z,15.94
2022-09-18T10:41:39.215Z,17.60
2022-09-18T10:44:26.507Z,15.27
2022-09-18T10:47:06.675Z,16.52
2022-09-18T10:49:40.771Z,16.53
2022-09-18T10:52:29.957Z,16.45
2022-09-18T10:55:12.500Z,15.89
2022-09-18T10:57:44.869Z,14.94
2022-09-18T11:00:39.385Z,14.90
2022-09-18T11:03:39.169Z,13.31
2022-09-18T11:06:11.974Z,14.37
2022-09-18T11:08:45.034Z,12.82
2022-09-18T11:14:34.043Z,15.12
2022-09-18T11:17:24.921Z,14.79
2022-09-18T11:19:57.721Z,14.18
2022-09-18T11:22:41.303Z,14.63
2022-09-18T11:25:22.239Z,14.97
2022-09-18T11:27:54.612Z,12.89
2022-09-18T11:30:26.224Z,15.32
2022-09-18T11:33:00.413Z,15.28
2022-09-18T11:35:32.746Z,15.19
2022-09-18T11:38:06.362Z,15.06
2022-09-18T11:40:45.224Z,14.73
2022-09-18T11:43:18.250Z,14.72
2022-09-18T11:45:57.416Z,12.80
2022-09-18T11:48:35.905Z,14.45
2022-09-18T11:51:12.767Z,14.38
2022-09-18T12:00:12.751Z,12.33
2022-09-18T12:03:03.185Z,12.52
2022-09-18T12:08:48.411Z,13.15
2022-09-18T12:11:26.378Z,13.92
2022-09-18T12:14:03.143Z,12.11
2022-09-18T12:16:46.137Z,11.46
2022-09-18T12:19:23.488Z,14.06
2022-09-18T12:21:59.852Z,13.07
2022-09-18T12:34:18.398Z,13.83
2022-09-18T12:37:04.529Z,12.37
2022-09-18T14:03:07.001Z,13.91
2022-09-18T14:05:52.724Z,10.85
2022-09-18T14:08:58.055Z,10.86
2022-09-18T14:37:03.773Z,10.50
2022-09-18T14:40:11.573Z,9.31
2022-09-18T14:46:07.084Z,11.69
2022-09-18T14:48:51.054Z,11.22
2022-09-18T14:55:14.348Z,9.86
2022-09-18T15:04:48.969Z,12.93
2022-09-18T15:07:35.870Z,9.41
2022-09-18T15:58:44.053Z,10.37
2022-09-18T16:47:34.602Z,9.03
2022-09-18T17:02:46.362Z,9.63
2022-09-18T17:17:52.453Z,8.71
2022-09-18T17:23:31.188Z,11.95
2022-09-18T18:07:55.390Z,11.30
2022-09-18T18:10:23.756Z,10.04
2022-09-18T18:12:51.813Z,7.59
2022-09-18T18:15:20.391Z,8.56
2022-09-18T18:17:49.388Z,11.29
2022-09-18T18:20:18.569Z,7.99
2022-09-18T18:22:57.600Z,10.51
2022-09-18T18:25:27.285Z,7.97
2022-09-18T18:27:55.989Z,8.37
2022-09-18T18:30:24.919Z,10.39
2022-09-18T18:32:53.648Z,9.16
2022-09-18T18:35:25.448Z,11.30
2022-09-18T18:42:02.448Z,11.09
2022-09-18T18:44:32.267Z,9.17
2022-09-18T18:47:01.925Z,8.15
2022-09-18T18:49:31.231Z,8.65
2022-09-18T18:52:02.724Z,8.74
2022-09-18T19:13:29.291Z,9.67
2022-09-18T19:48:06.110Z,10.73
2022-09-18T19:50:39.213Z,6.70
2022-09-18T19:53:09.322Z,8.63
2022-09-18T19:55:40.386Z,9.87
2022-09-18T19:58:12.342Z,8.92
2022-09-18T20:00:46.121Z,8.78
2022-09-18T20:32:15.124Z,9.26
2022-09-18T20:50:39.290Z,5.96
2022-09-18T20:53:09.367Z,8.01
2022-09-18T20:55:37.982Z,7.80
2022-09-18T20:58:06.399Z,9.34
2022-09-18T21:00:39.509Z,8.01
2022-09-18T21:03:13.755Z,8.02
2022-09-18T21:05:45.923Z,8.13
